Skip to main content.
 TIME   TEMPERATURE   WINDSPEED   DIRECTION   HUMIDITY   BAROMETER   RAINFALL 
12:25 24.9°C (76.8°F) 25.9 kmh (16.1 mph) NNE 59% 1008.0hPa (29.77 inHg) 0.0mm (0.00 in.)
11:25 25.1°C (77.2 °F) 25.9 kmh (16.1 mph) NW 59% 1008.0hPa (29.77 inHg) 0.0mm (0.00 in.)
10:25 25.3°C (77.5 °F) 27.8 kmh (17.3 mph) N 59% 1008.0hPa (29.77 inHg) 0.0mm (0.00 in.)
9:25 25.6°C (78.1 °F) 29.6 kmh (18.4 mph) N 57% 1007.0hPa (29.74 inHg) 0.0mm (0.00 in.)
8:25 26.0°C (78.8 °F) 24.1 kmh (15.0 mph) NNW 56% 1007.0hPa (29.74 inHg) 0.0mm (0.00 in.)
7:25 26.4°C (79.5 °F) 27.8 kmh (17.3 mph) NW 56% 1007.0hPa (29.74 inHg) 0.0mm (0.00 in.)
6:25 27.0°C (80.6 °F) 22.2 kmh (13.8 mph) NW 55% 1007.0hPa (29.74 inHg) 0.0mm (0.00 in.)
5:25 27.4°C (81.3 °F) 27.8 kmh (17.3 mph) NE 54% 1007.0hPa (29.74 inHg) 0.0mm (0.00 in.)
4:25 27.9°C (82.2 °F) 25.9 kmh (16.1 mph) NNW 53% 1007.0hPa (29.74 inHg) 0.0mm (0.00 in.)
3:25 29.4°C (84.9 °F) 27.8 kmh (17.3 mph) NNW 52% 1008.0hPa (29.77 inHg) 0.0mm (0.00 in.)
2:25 29.3°C (84.7 °F) 31.5 kmh (19.6 mph) NNW 53% 1008.0hPa (29.77 inHg) 0.0mm (0.00 in.)
1:25 28.9°C (84.0 °F) 31.5 kmh (19.6 mph) N 53% 1008.0hPa (29.77 inHg) 0.0mm (0.00 in.)
12:25 28.2°C (82.8 °F) 20.4 kmh (12.7 mph) NNW 55% 1008.0hPa (29.77 inHg) 0.0mm (0.00 in.)
11:25 28.0°C (82.4 °F) 27.8 kmh (17.3 mph) N 57% 1008.0hPa (29.77 inHg) 0.0mm (0.00 in.)
10:25 27.3°C (81.1 °F) 31.5 kmh (19.6 mph) NNE 59% 1008.0hPa (29.77 inHg) 0.0mm (0.00 in.)
9:25 27.0°C (80.6 °F) 35.2 kmh (21.9 mph) N 61% 1008.0hPa (29.77 inHg) 0.0mm (0.00 in.)
8:25 26.8°C (80.2 °F) 31.5 kmh (19.6 mph) NNE 64% 1008.0hPa (29.77 inHg) 0.0mm (0.00 in.)
7:25 26.5°C (79.7 °F) 25.9 kmh (16.1 mph) NNE 66% 1007.0hPa (29.74 inHg) 0.0mm (0.00 in.)
6:25 26.1°C (79.0 °F) 25.9 kmh (16.1 mph) N 66% 1007.0hPa (29.74 inHg) 0.0mm (0.00 in.)
5:25 26.1°C (79.0 °F) 24.1 kmh (15.0 mph) N 67% 1007.0hPa (29.74 inHg) 0.0mm (0.00 in.)
4:25 26.1°C (79.0 °F) 24.1 kmh (15.0 mph) N 67% 1007.0hPa (29.74 inHg) 0.0mm (0.00 in.)
3:25 26.1°C (79.0 °F) 18.5 kmh (11.5 mph) WNW 68% 1006.0hPa (29.71 inHg) 0.0mm (0.00 in.)
2:25 26.8°C (80.2 °F) 13.0 kmh (8.1 mph) NNE 65% 1009.0hPa (29.80 inHg) 0.0mm (0.00 in.)
1:25 27.0°C (80.6 °F) 18.5 kmh (11.5 mph) NNE 65% 1007.0hPa (29.74 inHg) 0.0mm (0.00 in.)